Terminal Aerodrome Forecast
Issued by NWS

Home | Current Version | Previous Version | Text Only | Print | Product List | Glossary Off
Versions: 1 2 3 4 5 6 7 8 9 10 11 12 13 14 15 16 17 18 19 20

000
FTUS41 KCLE 242300
TAFFDY
TAF
KFDY 242330Z 2500/2524 23014G20KT P6SM SCT030 OVC050
      TEMPO 2501/2505 3SM -SHSN BKN025 OVC040
     FM250500 24014G20KT P6SM -SHSN BKN035
     FM251000 30009KT P6SM BKN035
     FM251400 32005KT P6SM BKN250
     FM252300 05005KT P6SM BKN100 OVC200=

USA.gov is the U.S. government's official web portal to all federal, state and local government web resources and services.